Time;durP1;ratioP1;P1;durP2;ratioP2;P2;SDS_P1;SDS_P2;PMS_P1;PMS_P2;Temp;Humidity;BMP_temperature;BMP_pressure;BME280_temperature;BME280_humidity;BME280_pressure;Samples;Min_cycle;Max_cycle;Signal;HPM_P1;HPM_P2
2023/06/16 00:00:13;;;;;;;13.27;4.72;;;25.10;55.90;;;;;;5039924;28;20180;-56
2023/06/16 00:02:41;;;;;;;26.40;5.97;;;25.00;56.10;;;;;;5007361;28;20030;-55
2023/06/16 00:05:08;;;;;;;25.15;5.95;;;25.00;56.00;;;;;;5039869;28;20026;-55
2023/06/16 00:07:34;;;;;;;16.67;5.00;;;24.90;56.00;;;;;;5023593;28;20030;-55
2023/06/16 00:10:00;;;;;;;17.00;5.07;;;24.90;56.10;;;;;;5023754;28;20057;-56
2023/06/16 00:12:26;;;;;;;19.80;6.00;;;24.90;56.20;;;;;;5040332;28;20386;-55
2023/06/16 00:14:51;;;;;;;17.25;5.28;;;24.90;56.30;;;;;;5024548;28;20469;-55
2023/06/16 00:17:20;;;;;;;11.95;5.18;;;24.80;56.30;;;;;;5024912;28;20141;-55
2023/06/16 00:19:47;;;;;;;15.38;4.57;;;24.80;56.60;;;;;;5039414;28;20030;-55
2023/06/16 00:22:12;;;;;;;23.10;4.75;;;24.70;56.70;;;;;;5023367;28;20030;-55
2023/06/16 00:24:38;;;;;;;19.05;4.93;;;24.70;57.00;;;;;;5039714;28;20079;-55
2023/06/16 00:27:04;;;;;;;17.90;5.38;;;24.60;57.10;;;;;;5023526;28;20033;-55
2023/06/16 00:29:29;;;;;;;34.97;5.45;;;24.60;57.50;;;;;;5024100;28;20030;-55
2023/06/16 00:31:55;;;;;;;12.55;5.13;;;24.50;57.80;;;;;;5026073;28;20030;-55
2023/06/16 00:34:21;;;;;;;15.93;4.50;;;24.50;58.00;;;;;;5041375;28;20030;-56
2023/06/16 00:36:46;;;;;;;15.68;4.80;;;24.50;58.10;;;;;;5041282;28;20025;-56
2023/06/16 00:39:12;;;;;;;13.30;4.63;;;24.40;58.30;;;;;;5040644;28;20045;-54
2023/06/16 00:41:37;;;;;;;14.95;4.78;;;24.40;58.60;;;;;;5040041;28;20030;-55
2023/06/16 00:44:03;;;;;;;16.05;4.93;;;24.40;58.70;;;;;;5038901;28;20483;-56
2023/06/16 00:46:30;;;;;;;9.15;4.20;;;24.30;58.70;;;;;;5024523;28;20030;-55
2023/06/16 00:48:56;;;;;;;15.80;4.30;;;24.30;58.80;;;;;;5023353;28;20030;-56
2023/06/16 00:51:23;;;;;;;14.85;4.57;;;24.20;59.80;;;;;;5023465;28;20159;-55
2023/06/16 00:53:49;;;;;;;24.38;4.97;;;24.20;59.00;;;;;;5023727;28;20111;-55
2023/06/16 00:56:14;;;;;;;13.95;4.18;;;24.20;59.10;;;;;;5040364;28;20125;-55
2023/06/16 00:58:40;;;;;;;20.13;4.50;;;24.20;59.50;;;;;;5024000;28;20524;-55
2023/06/16 01:01:05;;;;;;;16.88;4.57;;;24.20;59.60;;;;;;5023371;28;20423;-56
2023/06/16 01:03:32;;;;;;;15.98;4.53;;;24.10;59.80;;;;;;5040620;28;20064;-56
2023/06/16 01:06:00;;;;;;;19.00;4.68;;;24.10;60.10;;;;;;5023369;28;20033;-55
2023/06/16 01:08:34;;;;;;;9.00;4.15;;;24.10;60.40;;;;;;5022905;28;20073;-55
2023/06/16 01:11:15;;;;;;;13.68;4.10;;;24.00;60.80;;;;;;5023398;28;20074;-55
2023/06/16 01:13:53;;;;;;;9.63;3.72;;;24.00;60.70;;;;;;5043260;28;20030;-56
2023/06/16 01:16:21;;;;;;;19.52;4.70;;;23.90;60.80;;;;;;5043077;28;20026;-55
2023/06/16 01:18:48;;;;;;;9.02;3.75;;;23.90;60.90;;;;;;5043140;28;20033;-55
2023/06/16 01:21:43;;;;;;;15.73;3.75;;;23.80;61.10;;;;;;5042851;28;20037;-56
2023/06/16 01:24:16;;;;;;;8.88;3.97;;;23.80;61.30;;;;;;5026655;28;20041;-55
2023/06/16 01:26:46;;;;;;;8.50;3.90;;;23.70;61.30;;;;;;5042287;28;20037;-55
2023/06/16 01:29:12;;;;;;;7.97;4.22;;;23.70;61.60;;;;;;5026341;28;20033;-55
2023/06/16 01:31:38;;;;;;;12.23;3.70;;;23.70;61.80;;;;;;5026447;28;20030;-58
2023/06/16 01:34:04;;;;;;;9.50;3.67;;;23.70;62.10;;;;;;5042868;28;20038;-59
2023/06/16 01:36:31;;;;;;;12.43;3.97;;;23.70;62.30;;;;;;5026140;28;20088;-59
2023/06/16 01:38:58;;;;;;;8.43;3.80;;;23.60;62.20;;;;;;5026183;28;20055;-58
2023/06/16 01:41:24;;;;;;;12.55;4.70;;;23.60;62.40;;;;;;5026379;28;20470;-59
2023/06/16 01:43:50;;;;;;;15.80;4.38;;;23.60;62.60;;;;;;5026189;28;20133;-59
2023/06/16 01:46:15;;;;;;;9.60;4.07;;;23.60;62.60;;;;;;5026436;28;20092;-59
2023/06/16 01:48:41;;;;;;;12.93;4.18;;;23.60;62.90;;;;;;5026277;28;20084;-57
2023/06/16 01:51:07;;;;;;;6.97;4.15;;;23.60;63.00;;;;;;5026311;28;20026;-59
2023/06/16 01:53:32;;;;;;;11.32;4.53;;;23.50;63.10;;;;;;5026118;28;20037;-58
2023/06/16 01:55:58;;;;;;;8.68;4.75;;;23.50;63.30;;;;;;5027378;28;20030;-59
2023/06/16 01:58:24;;;;;;;6.85;3.97;;;23.50;63.40;;;;;;5026031;28;20034;-59
2023/06/16 02:01:15;;;;;;;13.48;4.18;;;23.50;63.70;;;;;;5042485;28;20096;-59
2023/06/16 02:03:45;;;;;;;17.45;3.95;;;23.40;63.90;;;;;;5015155;28;20050;-58
2023/06/16 02:06:25;;;;;;;12.98;3.50;;;23.40;64.30;;;;;;5027688;28;20062;-59
2023/06/16 02:08:53;;;;;;;9.68;4.10;;;23.40;64.50;;;;;;5025887;28;20113;-59
2023/06/16 02:11:18;;;;;;;9.07;3.90;;;23.40;64.50;;;;;;5026692;28;20026;-59
2023/06/16 02:13:44;;;;;;;8.30;4.38;;;23.40;64.60;;;;;;5025907;28;20026;-59
2023/06/16 02:16:10;;;;;;;12.18;4.70;;;23.40;64.70;;;;;;5025538;28;20462;-59
2023/06/16 02:18:36;;;;;;;13.30;5.05;;;23.40;64.90;;;;;;5041955;28;20037;-58
2023/06/16 02:21:01;;;;;;;16.70;5.63;;;23.30;65.00;;;;;;5042130;28;20106;-58
2023/06/16 02:23:27;;;;;;;11.40;5.30;;;23.30;65.00;;;;;;5026618;28;20115;-58
2023/06/16 02:25:52;;;;;;;7.72;5.00;;;23.30;65.20;;;;;;5042050;28;20037;-59
2023/06/16 02:28:18;;;;;;;6.93;4.38;;;23.30;65.30;;;;;;5026747;28;20522;-58
2023/06/16 02:30:44;;;;;;;10.10;4.50;;;23.20;65.30;;;;;;5041887;28;20030;-59
2023/06/16 02:33:11;;;;;;;11.82;4.82;;;23.30;65.40;;;;;;5025220;28;20018;-59
2023/06/16 02:35:36;;;;;;;7.97;4.47;;;23.20;65.60;;;;;;5026702;28;20034;-59
2023/06/16 02:38:02;;;;;;;6.30;4.35;;;23.20;65.80;;;;;;5041626;28;20101;-58
2023/06/16 02:40:27;;;;;;;11.05;4.88;;;23.20;65.80;;;;;;5026710;28;20026;-59
2023/06/16 02:42:54;;;;;;;8.73;6.57;;;23.20;65.90;;;;;;5026590;28;20038;-58
2023/06/16 02:45:20;;;;;;;10.77;6.03;;;23.20;66.10;;;;;;5041727;28;20048;-58
2023/06/16 02:47:45;;;;;;;7.95;5.80;;;23.20;66.30;;;;;;5041598;28;20022;-59
2023/06/16 02:50:11;;;;;;;6.85;5.43;;;23.10;66.30;;;;;;5041575;28;20026;-59
2023/06/16 02:52:36;;;;;;;10.63;5.55;;;23.10;66.30;;;;;;5008580;28;20101;-59
2023/06/16 02:55:03;;;;;;;9.50;5.38;;;23.10;66.50;;;;;;5041540;28;20026;-59
2023/06/16 02:57:29;;;;;;;12.50;5.70;;;23.10;66.60;;;;;;5026277;28;20046;-59
2023/06/16 02:59:55;;;;;;;11.15;4.93;;;23.10;66.40;;;;;;5041239;28;20029;-59
2023/06/16 03:02:21;;;;;;;11.68;5.20;;;23.10;66.40;;;;;;5024965;28;20030;-59
2023/06/16 03:04:47;;;;;;;7.70;5.20;;;23.10;66.50;;;;;;5024778;28;20342;-59
2023/06/16 03:07:12;;;;;;;8.38;5.55;;;23.10;66.60;;;;;;5023551;28;20026;-59
2023/06/16 03:09:38;;;;;;;11.13;4.97;;;23.00;66.60;;;;;;5024620;28;20152;-58
2023/06/16 03:12:04;;;;;;;8.25;5.25;;;23.10;66.90;;;;;;5040954;28;20022;-59
2023/06/16 03:14:32;;;;;;;10.70;5.70;;;23.00;67.10;;;;;;5040895;28;20049;-58
2023/06/16 03:16:58;;;;;;;9.98;5.53;;;23.00;67.10;;;;;;5040748;28;20388;-59
2023/06/16 03:19:23;;;;;;;12.10;5.40;;;23.00;67.20;;;;;;5024483;28;20025;-59
2023/06/16 03:21:50;;;;;;;9.27;5.55;;;22.90;67.30;;;;;;5041088;28;20125;-59
2023/06/16 03:24:18;;;;;;;10.75;6.25;;;22.90;67.30;;;;;;5024323;28;20090;-59
2023/06/16 03:26:44;;;;;;;10.65;5.72;;;22.90;67.40;;;;;;5025844;28;20030;-58
2023/06/16 03:29:11;;;;;;;10.05;5.75;;;22.90;67.50;;;;;;5025597;28;20046;-59
2023/06/16 03:31:37;;;;;;;51.25;9.35;;;22.90;67.80;;;;;;5040752;28;20116;-59
2023/06/16 03:34:03;;;;;;;106.63;13.70;;;22.80;68.60;;;;;;5024780;28;20045;-59
2023/06/16 03:36:32;;;;;;;63.28;11.05;;;22.80;68.30;;;;;;5024941;28;20036;-59
2023/06/16 03:38:58;;;;;;;53.42;9.55;;;22.80;68.30;;;;;;5024291;28;20037;-58
2023/06/16 03:41:23;;;;;;;48.67;7.53;;;22.80;68.50;;;;;;5026031;28;20026;-59
2023/06/16 03:43:49;;;;;;;50.72;8.25;;;22.70;68.70;;;;;;5025471;28;20080;-58
2023/06/16 03:46:15;;;;;;;35.97;7.95;;;22.70;68.70;;;;;;5040659;28;20041;-59
2023/06/16 03:48:40;;;;;;;37.08;8.20;;;22.70;68.70;;;;;;5025222;28;20041;-59
2023/06/16 03:51:06;;;;;;;29.17;7.00;;;22.70;69.50;;;;;;5025198;28;20026;-59
2023/06/16 03:53:31;;;;;;;24.83;7.63;;;22.70;68.90;;;;;;5024012;28;20112;-59
2023/06/16 03:55:57;;;;;;;26.58;6.82;;;22.70;68.90;;;;;;5040556;28;20045;-58
2023/06/16 03:58:24;;;;;;;34.17;7.32;;;22.60;68.90;;;;;;5025114;28;20028;-59
2023/06/16 04:00:50;;;;;;;31.23;7.13;;;22.70;69.60;;;;;;5025218;28;20053;-59
2023/06/16 04:03:15;;;;;;;27.95;7.07;;;22.60;69.50;;;;;;5025225;28;20037;-59
2023/06/16 04:05:41;;;;;;;22.67;6.80;;;22.60;69.50;;;;;;5025200;28;20025;-59
2023/06/16 04:08:07;;;;;;;34.47;6.53;;;22.50;69.50;;;;;;5023537;28;20030;-58
2023/06/16 04:10:33;;;;;;;35.67;7.22;;;22.60;69.60;;;;;;5024964;28;20040;-59
2023/06/16 04:12:58;;;;;;;40.53;6.93;;;22.60;69.80;;;;;;5039993;28;20026;-58
2023/06/16 04:15:24;;;;;;;21.08;6.03;;;22.50;69.70;;;;;;5039996;28;20037;-59
2023/06/16 04:17:50;;;;;;;21.88;6.22;;;22.50;69.60;;;;;;5040159;28;20149;-58
2023/06/16 04:20:15;;;;;;;25.50;6.20;;;22.50;70.00;;;;;;5023311;28;20072;-59
2023/06/16 04:22:41;;;;;;;27.95;6.50;;;22.50;69.90;;;;;;5040160;28;20034;-59
2023/06/16 04:25:09;;;;;;;24.70;6.78;;;22.50;69.80;;;;;;5023590;28;20493;-59
2023/06/16 04:27:36;;;;;;;23.88;5.78;;;22.50;69.90;;;;;;5023664;28;20107;-58
2023/06/16 04:30:04;;;;;;;17.98;5.78;;;22.50;70.30;;;;;;5039937;28;20042;-59
2023/06/16 04:32:30;;;;;;;15.15;5.22;;;22.50;70.60;;;;;;5025200;28;20026;-59
2023/06/16 04:34:57;;;;;;;23.52;5.63;;;22.50;70.90;;;;;;5039842;28;20087;-59
2023/06/16 04:37:23;;;;;;;24.33;5.72;;;22.50;71.40;;;;;;5024969;28;20049;-59
2023/06/16 04:39:49;;;;;;;12.30;5.30;;;22.50;71.80;;;;;;5039811;28;20038;-59
2023/06/16 04:42:15;;;;;;;26.58;5.97;;;22.40;72.00;;;;;;5039751;28;20026;-58
2023/06/16 04:44:41;;;;;;;19.50;5.22;;;22.40;71.60;;;;;;5023320;28;20062;-58
2023/06/16 04:47:08;;;;;;;22.27;5.60;;;22.40;71.40;;;;;;5044019;28;20026;-58
2023/06/16 04:49:34;;;;;;;17.92;5.60;;;22.40;71.40;;;;;;5028652;28;20046;-59
2023/06/16 04:52:00;;;;;;;20.10;5.30;;;22.30;71.40;;;;;;5027344;28;20107;-59
2023/06/16 04:54:26;;;;;;;18.23;5.03;;;22.30;71.70;;;;;;5028546;28;20427;-59
2023/06/16 04:56:52;;;;;;;16.25;5.20;;;22.30;71.70;;;;;;5043909;28;20029;-59
2023/06/16 04:59:18;;;;;;;16.38;4.68;;;22.30;71.60;;;;;;5027628;28;20021;-58
2023/06/16 05:01:43;;;;;;;24.73;6.05;;;22.30;71.60;;;;;;5047087;28;20093;-59
2023/06/16 05:04:09;;;;;;;16.73;5.93;;;22.30;72.10;;;;;;5029248;28;20120;-59
2023/06/16 05:06:37;;;;;;;24.52;6.10;;;22.30;71.60;;;;;;5027135;28;20157;-59
2023/06/16 05:09:03;;;;;;;20.45;5.75;;;22.20;71.70;;;;;;5028117;28;20030;-59
2023/06/16 05:11:29;;;;;;;16.33;5.65;;;22.20;71.70;;;;;;5026559;28;20030;-59
2023/06/16 05:13:54;;;;;;;17.92;6.15;;;22.20;71.80;;;;;;5027078;28;20084;-59
2023/06/16 05:16:20;;;;;;;17.05;5.72;;;22.20;71.90;;;;;;5029097;28;20033;-58
2023/06/16 05:18:45;;;;;;;13.25;5.38;;;22.20;72.70;;;;;;5029075;28;20041;-58
2023/06/16 05:21:11;;;;;;;16.38;5.70;;;22.20;72.10;;;;;;5044456;28;20033;-58
2023/06/16 05:23:38;;;;;;;9.88;5.45;;;22.20;72.10;;;;;;5027657;28;20050;-58
2023/06/16 05:26:03;;;;;;;14.20;5.78;;;22.10;72.10;;;;;;5044267;28;20026;-58
2023/06/16 05:28:29;;;;;;;11.07;5.47;;;22.10;72.70;;;;;;5029251;28;20046;-59
2023/06/16 05:30:55;;;;;;;13.27;4.93;;;22.10;72.00;;;;;;5044491;28;20022;-59
2023/06/16 05:33:20;;;;;;;8.55;4.93;;;22.10;72.10;;;;;;5043712;28;20090;-59
2023/06/16 05:35:46;;;;;;;5.82;4.30;;;22.10;72.20;;;;;;5028554;28;20062;-58
2023/06/16 05:38:11;;;;;;;12.48;5.38;;;22.00;72.30;;;;;;5026479;28;20076;-57
2023/06/16 05:40:37;;;;;;;13.57;5.70;;;22.00;72.30;;;;;;5043296;28;20025;-59
2023/06/16 05:43:02;;;;;;;9.50;4.68;;;22.00;72.20;;;;;;5026671;28;20127;-59
2023/06/16 05:45:28;;;;;;;13.55;5.00;;;22.00;72.30;;;;;;5027629;28;20041;-59
2023/06/16 05:47:53;;;;;;;12.20;4.53;;;22.00;72.20;;;;;;5026217;28;20036;-58
2023/06/16 05:50:19;;;;;;;14.55;4.70;;;22.00;72.20;;;;;;5026360;28;20053;-59
2023/06/16 05:52:45;;;;;;;13.10;5.57;;;22.00;72.20;;;;;;5043033;28;20026;-58
2023/06/16 05:55:10;;;;;;;8.93;4.72;;;22.00;72.10;;;;;;5042960;28;20034;-59
2023/06/16 05:57:37;;;;;;;15.15;4.97;;;22.00;72.20;;;;;;5026739;28;20018;-59
2023/06/16 06:00:04;;;;;;;15.48;4.90;;;22.00;72.20;;;;;;5042352;28;20034;-59
2023/06/16 06:02:30;;;;;;;11.60;4.68;;;22.00;72.10;;;;;;5042261;28;20044;-58
2023/06/16 06:04:55;;;;;;;15.15;4.72;;;22.00;72.40;;;;;;5042328;28;20034;-59
2023/06/16 06:07:21;;;;;;;8.23;4.95;;;21.90;72.40;;;;;;5027008;28;20040;-59
2023/06/16 06:09:46;;;;;;;13.05;5.10;;;22.00;72.70;;;;;;5027020;28;20045;-58
2023/06/16 06:12:12;;;;;;;5.88;4.15;;;21.90;72.80;;;;;;5042289;28;20089;-59
2023/06/16 06:14:38;;;;;;;9.82;4.15;;;21.90;72.80;;;;;;5026871;28;20034;-59
2023/06/16 06:17:03;;;;;;;9.50;4.50;;;22.00;73.10;;;;;;5025580;28;20042;-59
2023/06/16 06:19:29;;;;;;;8.40;4.00;;;22.00;73.10;;;;;;5027057;28;20029;-59
2023/06/16 06:21:55;;;;;;;9.02;4.20;;;22.00;73.20;;;;;;5027439;28;20088;-59
2023/06/16 06:24:20;;;;;;;11.70;4.40;;;22.00;73.40;;;;;;5042139;28;20034;-59
2023/06/16 06:26:46;;;;;;;7.10;4.25;;;21.90;73.40;;;;;;5027145;28;20085;-58
2023/06/16 06:29:13;;;;;;;7.88;3.83;;;22.00;73.60;;;;;;5041315;28;20092;-59
2023/06/16 06:31:38;;;;;;;7.10;4.10;;;22.00;73.60;;;;;;5041850;28;20030;-59
2023/06/16 06:34:04;;;;;;;11.68;4.13;;;22.00;73.80;;;;;;5026608;28;20049;-59
2023/06/16 06:36:29;;;;;;;10.63;3.88;;;22.00;73.80;;;;;;5026703;28;20090;-59
2023/06/16 06:38:55;;;;;;;7.68;4.22;;;22.00;73.80;;;;;;5030907;28;20033;-59
2023/06/16 06:41:24;;;;;;;10.65;4.30;;;22.00;74.00;;;;;;5036526;28;20029;-59
2023/06/16 06:43:50;;;;;;;17.83;4.60;;;22.00;74.10;;;;;;5024682;28;20048;-59
2023/06/16 06:46:17;;;;;;;8.65;4.53;;;22.00;74.30;;;;;;5025443;28;20030;-59
2023/06/16 06:48:42;;;;;;;15.50;4.93;;;22.00;74.40;;;;;;5025119;28;20086;-58
2023/06/16 06:51:09;;;;;;;14.77;4.60;;;22.00;74.40;;;;;;5033893;28;20025;-59
2023/06/16 06:53:35;;;;;;;18.17;4.90;;;22.00;74.40;;;;;;5030786;28;20030;-59
2023/06/16 06:56:00;;;;;;;9.02;4.18;;;22.00;74.50;;;;;;5046078;28;20025;-59
2023/06/16 06:58:26;;;;;;;11.77;4.55;;;22.00;74.50;;;;;;5032408;28;20488;-59
2023/06/16 07:00:51;;;;;;;10.30;4.57;;;22.00;74.20;;;;;;5046777;28;20034;-59
2023/06/16 07:03:17;;;;;;;11.98;4.03;;;22.00;74.30;;;;;;5055140;28;20041;-59
2023/06/16 07:05:42;;;;;;;17.17;4.45;;;22.00;74.30;;;;;;5042899;28;20078;-59
2023/06/16 07:08:08;;;;;;;9.02;4.40;;;22.00;74.30;;;;;;5057657;28;20025;-59
2023/06/16 07:10:33;;;;;;;14.77;3.97;;;22.00;74.40;;;;;;5056695;28;20022;-59
2023/06/16 07:12:59;;;;;;;10.93;4.43;;;22.00;74.40;;;;;;5059584;28;20038;-59
2023/06/16 07:15:24;;;;;;;18.15;4.55;;;22.00;74.30;;;;;;5040937;28;20033;-59
2023/06/16 07:17:50;;;;;;;11.63;4.25;;;22.00;74.40;;;;;;5043139;28;20032;-59
2023/06/16 07:20:16;;;;;;;29.33;5.30;;;22.00;74.40;;;;;;5040881;28;20494;-59
2023/06/16 07:22:45;;;;;;;18.70;5.70;;;22.10;74.60;;;;;;5025454;28;20363;-59
2023/06/16 07:25:14;;;;;;;23.90;6.13;;;22.10;74.70;;;;;;5040446;28;20060;-59
2023/06/16 07:27:39;;;;;;;24.20;5.25;;;22.10;75.40;;;;;;5038284;28;20021;-59
2023/06/16 07:30:07;;;;;;;27.77;6.53;;;22.10;74.70;;;;;;5057861;28;20025;-59
2023/06/16 07:32:32;;;;;;;30.80;6.97;;;22.10;74.80;;;;;;5053735;28;20032;-59
2023/06/16 07:34:58;;;;;;;29.65;5.90;;;22.10;74.90;;;;;;5058279;28;20032;-59
2023/06/16 07:37:23;;;;;;;28.73;7.00;;;22.10;74.70;;;;;;5048535;28;20109;-59
2023/06/16 07:39:49;;;;;;;746.67;90.28;;;22.20;75.40;;;;;;5050832;28;20040;-59
2023/06/16 07:42:16;;;;;;;166.32;22.05;;;22.20;75.70;;;;;;5055731;28;20085;-59
2023/06/16 07:44:41;;;;;;;173.60;22.60;;;22.20;75.20;;;;;;5055672;28;20166;-58
2023/06/16 07:47:07;;;;;;;81.40;13.45;;;22.20;75.20;;;;;;5048322;28;20030;-58
2023/06/16 07:49:35;;;;;;;45.45;7.72;;;22.30;74.80;;;;;;5039602;28;20042;-58
2023/06/16 07:52:01;;;;;;;60.38;9.55;;;22.20;74.60;;;;;;5058274;28;20016;-58
2023/06/16 07:54:26;;;;;;;49.97;9.77;;;22.30;74.70;;;;;;5059578;28;20054;-59
2023/06/16 07:56:52;;;;;;;52.03;8.25;;;22.30;74.40;;;;;;5051676;28;20028;-59
2023/06/16 07:59:17;;;;;;;62.25;9.00;;;22.30;74.40;;;;;;5043767;28;20038;-59
2023/06/16 08:01:44;;;;;;;55.95;9.05;;;22.30;74.60;;;;;;5059441;28;20029;-59
2023/06/16 08:04:10;;;;;;;47.50;10.07;;;22.30;74.50;;;;;;5052106;28;20037;-59
2023/06/16 08:06:36;;;;;;;59.35;10.48;;;22.30;74.60;;;;;;5050550;28;20034;-58
2023/06/16 08:09:03;;;;;;;124.25;17.02;;;22.40;74.70;;;;;;5018786;28;20115;-59
2023/06/16 08:11:28;;;;;;;115.28;18.70;;;22.40;74.80;;;;;;5034348;28;20033;-59
2023/06/16 08:13:54;;;;;;;98.82;15.05;;;22.40;75.00;;;;;;5046607;28;20025;-59
2023/06/16 08:16:20;;;;;;;113.13;17.30;;;22.40;74.90;;;;;;5050999;28;20028;-58
2023/06/16 08:18:45;;;;;;;140.50;19.67;;;22.40;75.20;;;;;;5017939;28;20056;-59
2023/06/16 08:21:11;;;;;;;123.35;17.95;;;22.40;74.90;;;;;;5046379;28;20054;-55
2023/06/16 08:23:36;;;;;;;99.80;14.73;;;22.40;74.80;;;;;;5061741;28;20037;-55
2023/06/16 08:26:02;;;;;;;85.53;12.43;;;22.50;74.70;;;;;;5047884;28;20387;-55
2023/06/16 08:28:27;;;;;;;86.07;12.70;;;22.50;74.50;;;;;;5043010;28;20036;-55
2023/06/16 08:30:53;;;;;;;77.00;12.35;;;22.50;74.10;;;;;;5061444;28;20021;-55
2023/06/16 08:33:19;;;;;;;76.03;13.52;;;22.50;74.10;;;;;;5055814;28;20106;-55
2023/06/16 08:35:45;;;;;;;61.22;10.80;;;22.50;73.90;;;;;;5041379;28;20018;-55
2023/06/16 08:38:11;;;;;;;64.07;11.15;;;22.50;73.70;;;;;;5054819;28;20029;-55
2023/06/16 08:40:36;;;;;;;55.20;10.73;;;22.50;73.40;;;;;;5062806;28;20025;-55
2023/06/16 08:43:06;;;;;;;101.72;13.52;;;22.50;73.20;;;;;;5062818;28;20108;-55
2023/06/16 08:45:33;;;;;;;95.40;14.80;;;22.50;73.30;;;;;;5045632;28;20022;-55
2023/06/16 08:47:59;;;;;;;90.65;14.55;;;22.50;74.00;;;;;;5023454;28;20056;-55
2023/06/16 08:50:25;;;;;;;83.60;13.55;;;22.60;73.50;;;;;;5039862;28;20029;-55
2023/06/16 08:52:52;;;;;;;102.75;13.20;;;22.60;73.00;;;;;;5023356;28;20026;-55
2023/06/16 08:55:19;;;;;;;65.88;11.82;;;22.60;72.80;;;;;;5038485;28;20029;-55
2023/06/16 08:57:46;;;;;;;87.95;13.02;;;22.60;72.50;;;;;;5006733;28;20041;-55
2023/06/16 09:00:13;;;;;;;86.63;13.15;;;22.60;72.40;;;;;;5023415;28;20156;-55
2023/06/16 09:02:41;;;;;;;84.22;14.48;;;22.60;72.20;;;;;;5033234;28;20040;-55
2023/06/16 09:05:09;;;;;;;102.60;12.38;;;22.60;71.80;;;;;;5041747;28;20038;-55
2023/06/16 09:07:35;;;;;;;62.67;11.85;;;22.60;71.70;;;;;;5061136;28;20028;-55
2023/06/16 09:10:04;;;;;;;98.38;14.20;;;22.70;71.60;;;;;;5053189;28;20042;-55
2023/06/16 09:12:29;;;;;;;101.82;14.30;;;22.70;71.40;;;;;;5039577;28;20041;-55
2023/06/16 09:14:55;;;;;;;95.95;13.30;;;22.70;71.50;;;;;;5053375;28;20132;-55
2023/06/16 09:17:29;;;;;;;90.38;12.23;;;22.70;71.40;;;;;;5062775;28;20032;-55
2023/06/16 09:19:55;;;;;;;96.38;14.45;;;22.70;71.00;;;;;;5044251;28;20069;-55
2023/06/16 09:22:25;;;;;;;125.40;15.85;;;22.70;70.80;;;;;;5041992;28;20033;-55
2023/06/16 09:25:01;;;;;;;96.90;15.15;;;22.70;70.70;;;;;;5042942;28;20432;-55
2023/06/16 09:27:47;;;;;;;108.22;15.60;;;22.70;70.40;;;;;;5040939;28;20470;-55
2023/06/16 09:30:14;;;;;;;101.72;15.18;;;22.70;69.90;;;;;;5046021;28;20036;-55
2023/06/16 09:32:39;;;;;;;114.70;15.02;;;22.80;69.50;;;;;;5062624;28;20075;-55
2023/06/16 09:35:19;;;;;;;95.28;15.10;;;22.70;69.10;;;;;;5037460;28;20029;-55
2023/06/16 09:37:44;;;;;;;122.00;17.00;;;22.70;68.90;;;;;;5039213;28;20121;-55
2023/06/16 09:40:11;;;;;;;89.88;13.95;;;22.80;68.60;;;;;;5044921;28;20096;-55
2023/06/16 09:42:40;;;;;;;90.22;15.00;;;22.80;68.30;;;;;;5045508;28;20033;-55
2023/06/16 09:45:16;;;;;;;99.40;14.57;;;22.80;68.20;;;;;;5035212;28;20026;-55
2023/06/16 09:47:45;;;;;;;76.45;14.32;;;22.80;68.20;;;;;;5024369;28;20405;-55
2023/06/16 09:50:13;;;;;;;96.63;12.38;;;22.80;68.40;;;;;;5040788;28;20140;-55
2023/06/16 09:52:38;;;;;;;81.65;12.57;;;22.90;68.20;;;;;;5042630;28;20022;-55
2023/06/16 09:55:05;;;;;;;112.47;14.27;;;22.90;67.90;;;;;;5043733;28;20480;-55
2023/06/16 09:57:31;;;;;;;79.70;12.52;;;22.90;67.70;;;;;;5034007;28;20098;-55
2023/06/16 09:59:57;;;;;;;75.10;12.57;;;22.90;67.50;;;;;;5025865;28;20034;-55
2023/06/16 10:02:23;;;;;;;76.68;11.80;;;22.90;67.40;;;;;;5030793;28;20029;-55
2023/06/16 10:04:51;;;;;;;73.03;11.27;;;23.00;67.20;;;;;;5035166;28;21295;-55
2023/06/16 10:07:16;;;;;;;66.72;10.68;;;23.00;65.80;;;;;;5034615;28;20029;-56
2023/06/16 10:09:44;;;;;;;59.60;10.60;;;23.00;64.70;;;;;;5033652;28;20750;-55
2023/06/16 10:12:11;;;;;;;93.80;11.13;;;23.10;64.60;;;;;;5062205;28;20080;-55
2023/06/16 10:14:37;;;;;;;66.85;11.02;;;23.00;64.10;;;;;;5058040;28;20056;-55
2023/06/16 10:17:03;;;;;;;60.40;10.13;;;23.10;63.10;;;;;;5065225;28;20470;-55
2023/06/16 10:19:28;;;;;;;81.47;10.57;;;23.10;62.70;;;;;;5054262;28;20051;-55
2023/06/16 10:21:54;;;;;;;59.42;9.60;;;23.20;62.20;;;;;;5025001;28;20057;-55
2023/06/16 10:24:20;;;;;;;83.25;13.25;;;23.30;61.90;;;;;;5049900;28;20056;-55
2023/06/16 10:26:46;;;;;;;76.75;11.98;;;23.30;61.60;;;;;;5037296;28;20021;-55
2023/06/16 10:29:16;;;;;;;66.05;9.82;;;23.30;61.00;;;;;;5044034;28;20034;-56
2023/06/16 10:31:44;;;;;;;68.18;10.57;;;23.40;61.00;;;;;;5044636;28;20110;-55
2023/06/16 10:34:18;;;;;;;95.60;12.13;;;23.40;60.80;;;;;;5037862;28;20352;-55
2023/06/16 10:36:43;;;;;;;67.38;11.40;;;23.50;60.70;;;;;;5015870;28;20365;-55
2023/06/16 10:39:12;;;;;;;59.90;11.27;;;23.50;60.50;;;;;;5040093;28;20100;-55
2023/06/16 10:41:57;;;;;;;76.97;11.38;;;23.60;60.00;;;;;;5050063;28;20037;-55
2023/06/16 10:44:29;;;;;;;56.75;10.20;;;23.60;59.20;;;;;;5031798;28;20021;-55
2023/06/16 10:47:10;;;;;;;62.70;10.20;;;23.70;58.20;;;;;;5033780;28;20088;-55
2023/06/16 10:49:51;;;;;;;76.32;11.48;;;23.70;58.10;;;;;;5024133;28;20152;-55
2023/06/16 10:52:17;;;;;;;69.40;10.70;;;23.80;57.60;;;;;;5028696;28;20348;-55
2023/06/16 10:54:49;;;;;;;61.78;10.50;;;23.90;57.70;;;;;;5024455;28;20021;-55
2023/06/16 10:57:14;;;;;;;82.93;12.55;;;23.90;57.50;;;;;;5042932;28;20040;-56
2023/06/16 11:00:10;;;;;;;62.75;11.90;;;24.00;57.00;;;;;;5028349;28;20078;-55
2023/06/16 11:02:37;;;;;;;74.53;12.68;;;24.10;57.10;;;;;;5035578;28;20076;-55
2023/06/16 11:05:12;;;;;;;69.00;11.77;;;24.20;57.00;;;;;;5027406;28;20029;-55
2023/06/16 11:07:41;;;;;;;65.45;9.02;;;24.30;56.80;;;;;;5036276;28;20057;-55
2023/06/16 11:10:08;;;;;;;50.88;9.63;;;24.50;56.60;;;;;;5043397;28;20037;-55
2023/06/16 11:12:34;;;;;;;53.60;8.90;;;24.50;56.40;;;;;;5045042;28;20029;-55
2023/06/16 11:14:59;;;;;;;43.22;8.52;;;24.50;55.80;;;;;;5043904;28;20092;-55
2023/06/16 11:17:25;;;;;;;72.55;10.27;;;24.60;56.10;;;;;;5033694;28;20125;-55
2023/06/16 11:19:53;;;;;;;58.97;9.52;;;24.60;55.80;;;;;;5035059;28;20021;-55
2023/06/16 11:22:30;;;;;;;52.25;10.25;;;24.60;55.80;;;;;;5038999;28;20037;-56
2023/06/16 11:24:55;;;;;;;57.05;9.52;;;24.70;55.40;;;;;;5057506;28;20128;-54
2023/06/16 11:27:21;;;;;;;44.55;9.50;;;24.70;55.30;;;;;;5050697;28;20041;-55
2023/06/16 11:29:47;;;;;;;59.95;9.73;;;24.80;55.90;;;;;;5023847;28;20029;-53
2023/06/16 11:32:14;;;;;;;47.55;8.73;;;24.80;56.10;;;;;;5031446;28;20030;-55
2023/06/16 11:34:40;;;;;;;65.03;10.48;;;24.90;55.40;;;;;;5011694;28;20117;-56
2023/06/16 11:37:06;;;;;;;45.08;8.93;;;24.90;55.40;;;;;;5042137;28;20053;-55
2023/06/16 11:39:43;;;;;;;60.08;11.52;;;25.10;55.30;;;;;;5032757;28;20053;-55
2023/06/16 11:42:15;;;;;;;58.08;9.73;;;25.10;54.50;;;;;;5042750;28;20370;-55
2023/06/16 11:44:42;;;;;;;67.18;8.75;;;25.20;55.10;;;;;;5024282;28;20093;-55
2023/06/16 11:47:07;;;;;;;51.20;9.88;;;25.30;55.20;;;;;;5032195;28;20041;-56
2023/06/16 11:49:36;;;;;;;61.20;9.68;;;25.50;54.70;;;;;;5023722;28;20022;-55
2023/06/16 11:52:05;;;;;;;56.90;9.85;;;25.50;55.10;;;;;;5043360;28;20067;-55
2023/06/16 11:54:32;;;;;;;51.42;9.43;;;25.60;54.50;;;;;;5036699;28;20033;-55
2023/06/16 11:56:58;;;;;;;55.60;9.75;;;25.60;54.30;;;;;;5026796;28;20060;-55
2023/06/16 11:59:28;;;;;;;51.03;10.25;;;25.70;53.60;;;;;;5043689;28;20082;-55
2023/06/16 12:01:56;;;;;;;70.53;12.35;;;25.80;54.20;;;;;;5034430;28;20216;-55
2023/06/16 12:04:22;;;;;;;77.53;11.77;;;25.90;53.60;;;;;;5044522;28;20059;-55
2023/06/16 12:06:47;;;;;;;60.75;9.98;;;26.00;53.60;;;;;;5063108;28;20036;-55
2023/06/16 12:09:17;;;;;;;46.10;8.73;;;26.10;53.00;;;;;;5045643;28;20033;-55
2023/06/16 12:11:46;;;;;;;50.17;8.63;;;26.10;53.00;;;;;;5047520;28;20454;-55
2023/06/16 12:14:16;;;;;;;43.03;8.65;;;26.10;52.50;;;;;;5015834;28;20032;-55
2023/06/16 12:16:41;;;;;;;53.50;8.52;;;26.10;52.30;;;;;;5024410;28;20026;-55
2023/06/16 12:19:07;;;;;;;39.20;7.95;;;26.10;52.00;;;;;;5037792;28;20533;-55
2023/06/16 12:21:32;;;;;;;48.28;7.95;;;26.10;52.20;;;;;;5037556;28;20265;-55
2023/06/16 12:23:59;;;;;;;54.55;8.13;;;26.10;51.80;;;;;;5022357;28;20030;-55
2023/06/16 12:26:30;;;;;;;37.25;8.40;;;26.20;51.30;;;;;;5022209;28;20040;-55
2023/06/16 12:28:57;;;;;;;60.13;9.38;;;26.30;50.80;;;;;;5021017;28;20148;-55
2023/06/16 12:31:26;;;;;;;57.33;8.50;;;26.30;50.00;;;;;;5037058;28;20053;-55
2023/06/16 12:33:56;;;;;;;61.58;11.07;;;26.40;49.60;;;;;;5036961;28;20522;-55